createdAt,value
2023-02-21T00:01:14.106Z,15.72
2023-02-21T00:06:20.485Z,15.18
2023-02-21T00:11:26.533Z,15.70
2023-02-21T00:16:32.878Z,18.70
2023-02-21T00:21:38.938Z,14.53
2023-02-21T00:26:45.174Z,14.04
2023-02-21T00:31:51.299Z,14.03
2023-02-21T00:36:57.481Z,13.20
2023-02-21T00:42:03.543Z,13.76
2023-02-21T00:47:09.729Z,10.55
2023-02-21T00:52:15.812Z,11.07
2023-02-21T00:57:23.458Z,12.19
2023-02-21T01:02:29.543Z,11.40
2023-02-21T01:07:35.738Z,12.66
2023-02-21T01:12:41.945Z,13.67
2023-02-21T01:17:48.153Z,10.98
2023-02-21T01:22:54.256Z,14.18
2023-02-21T01:28:00.597Z,13.62
2023-02-21T01:33:06.646Z,14.36
2023-02-21T01:38:12.917Z,14.27
2023-02-21T01:43:19.089Z,12.41
2023-02-21T01:48:25.272Z,11.18
2023-02-21T01:53:31.437Z,13.28
2023-02-21T01:58:37.669Z,12.18
2023-02-21T02:03:43.731Z,13.65
2023-02-21T02:08:49.918Z,12.83
2023-02-21T02:13:56.023Z,13.85
2023-02-21T02:19:02.318Z,12.83
2023-02-21T02:24:08.382Z,13.67
2023-02-21T02:29:14.565Z,10.97
2023-02-21T02:34:20.647Z,12.63
2023-02-21T02:39:27.033Z,13.26
2023-02-21T02:44:33.189Z,12.12
2023-02-21T02:49:39.353Z,14.07
2023-02-21T02:54:45.469Z,10.83
2023-02-21T02:59:51.694Z,11.91
2023-02-21T03:04:57.791Z,12.71
2023-02-21T03:10:04.048Z,11.74
2023-02-21T03:15:10.120Z,12.15
2023-02-21T03:20:16.279Z,11.97
2023-02-21T03:25:22.383Z,12.23
2023-02-21T03:30:28.678Z,12.87
2023-02-21T03:35:34.820Z,13.06
2023-02-21T03:40:41.024Z,13.29
2023-02-21T03:45:47.143Z,12.63
2023-02-21T03:50:53.375Z,14.77
2023-02-21T03:56:00.485Z,14.80
2023-02-21T04:01:06.858Z,12.72
2023-02-21T04:06:12.903Z,15.42
2023-02-21T04:11:20.638Z,16.88
2023-02-21T04:16:26.752Z,14.23
2023-02-21T04:21:32.973Z,13.09
2023-02-21T04:26:39.076Z,13.38
2023-02-21T04:31:45.414Z,13.45
2023-02-21T04:36:51.390Z,13.04
2023-02-21T04:41:57.654Z,13.88
2023-02-21T04:47:03.790Z,15.93
2023-02-21T04:52:10.080Z,13.46
2023-02-21T04:57:16.184Z,13.99
2023-02-21T05:02:22.467Z,12.05
2023-02-21T05:07:28.550Z,13.45
2023-02-21T05:12:34.750Z,14.16
2023-02-21T05:17:40.863Z,12.35
2023-02-21T05:22:47.021Z,14.89
2023-02-21T05:27:53.155Z,15.01
2023-02-21T05:32:59.366Z,15.54
2023-02-21T05:38:05.471Z,14.44
2023-02-21T05:43:11.814Z,15.94
2023-02-21T05:48:17.914Z,14.75
2023-02-21T05:53:24.038Z,15.81
2023-02-21T05:58:30.084Z,15.12
2023-02-21T06:03:36.274Z,14.96
2023-02-21T06:08:42.385Z,17.43
2023-02-21T06:13:48.640Z,15.13
2023-02-21T06:18:54.732Z,18.06
2023-02-21T06:24:01.000Z,16.57
2023-02-21T06:29:07.058Z,17.78
2023-02-21T06:34:13.316Z,18.44
2023-02-21T06:39:20.118Z,14.65
2023-02-21T06:44:26.270Z,14.43
2023-02-21T06:49:32.323Z,16.49
2023-02-21T06:54:38.525Z,14.32
2023-02-21T06:59:44.559Z,15.21
2023-02-21T07:04:50.721Z,15.27
2023-02-21T07:09:56.787Z,14.13
2023-02-21T07:15:03.041Z,15.24
2023-02-21T07:20:09.082Z,14.45
2023-02-21T07:25:15.297Z,13.78
2023-02-21T07:30:21.395Z,13.87
2023-02-21T07:35:27.643Z,14.21
2023-02-21T07:40:33.694Z,13.39
2023-02-21T07:45:39.833Z,14.59
2023-02-21T07:50:45.902Z,13.42
2023-02-21T07:55:52.129Z,14.59
2023-02-21T08:00:58.196Z,14.88
2023-02-21T08:06:04.440Z,17.89
2023-02-21T08:11:10.497Z,16.48
2023-02-21T08:16:16.674Z,13.80
2023-02-21T08:21:22.693Z,14.89
2023-02-21T08:26:28.930Z,13.76
2023-02-21T08:31:35.033Z,15.74
2023-02-21T08:36:41.163Z,15.58
2023-02-21T08:41:47.229Z,13.62
2023-02-21T08:46:53.407Z,14.55
2023-02-21T08:51:59.454Z,13.88
2023-02-21T08:57:06.051Z,13.76
2023-02-21T09:02:12.203Z,13.41
2023-02-21T09:07:18.368Z,14.18
2023-02-21T09:12:24.412Z,14.68
2023-02-21T09:17:30.574Z,14.38
2023-02-21T09:22:36.629Z,15.57
2023-02-21T09:27:42.747Z,16.16
2023-02-21T09:32:48.850Z,14.20
2023-02-21T09:37:55.080Z,13.48
2023-02-21T09:43:01.234Z,14.25
2023-02-21T09:48:07.448Z,13.55
2023-02-21T09:53:13.867Z,13.81
2023-02-21T09:58:20.432Z,13.14
2023-02-21T10:03:26.447Z,13.07
2023-02-21T10:08:32.631Z,15.26
2023-02-21T10:13:38.809Z,13.74
2023-02-21T10:18:45.015Z,13.18
2023-02-21T10:23:51.155Z,13.80
2023-02-21T10:28:57.345Z,13.48
2023-02-21T10:34:03.409Z,15.70
2023-02-21T10:39:09.701Z,15.90
2023-02-21T10:44:15.737Z,14.81
2023-02-21T10:49:21.888Z,17.98
2023-02-21T10:54:28.024Z,14.92
2023-02-21T10:59:34.249Z,13.44
2023-02-21T11:04:40.714Z,17.14
2023-02-21T11:09:47.053Z,16.07
2023-02-21T11:14:53.164Z,15.82
2023-02-21T11:19:59.304Z,16.51
2023-02-21T11:25:05.452Z,15.26
2023-02-21T11:30:11.901Z,25.04
2023-02-21T11:35:17.864Z,34.51
2023-02-21T11:40:24.159Z,20.42
2023-02-21T11:45:30.241Z,17.06
2023-02-21T11:50:36.450Z,14.82
2023-02-21T11:55:42.631Z,14.95
2023-02-21T12:00:49.055Z,15.00
2023-02-21T12:05:56.121Z,14.91
2023-02-21T12:11:02.054Z,13.51
2023-02-21T12:16:08.142Z,12.92
2023-02-21T12:21:14.668Z,13.90
2023-02-21T12:26:19.939Z,12.33
2023-02-21T12:31:26.274Z,13.47
2023-02-21T12:36:32.218Z,12.34
2023-02-21T12:41:38.408Z,13.32
2023-02-21T12:46:44.657Z,12.65
2023-02-21T12:51:50.801Z,11.30
2023-02-21T12:56:56.938Z,11.46
2023-02-21T13:02:03.264Z,12.93
2023-02-21T13:07:09.271Z,14.65
2023-02-21T13:12:15.425Z,12.51
2023-02-21T13:17:21.550Z,12.92
2023-02-21T13:22:27.799Z,12.21
2023-02-21T13:27:33.921Z,12.13
2023-02-21T13:32:40.164Z,14.18
2023-02-21T13:37:46.333Z,12.76
2023-02-21T13:42:52.539Z,12.41
2023-02-21T13:47:58.606Z,12.48
2023-02-21T13:53:04.757Z,13.09
2023-02-21T13:58:10.883Z,12.67
2023-02-21T14:03:17.063Z,13.21
2023-02-21T14:08:23.119Z,14.00
2023-02-21T14:13:29.352Z,12.62
2023-02-21T14:18:35.531Z,12.67
2023-02-21T14:23:41.688Z,13.90
2023-02-21T14:28:47.783Z,14.45
2023-02-21T14:33:54.062Z,14.18
2023-02-21T14:39:00.146Z,14.64
2023-02-21T14:49:09.063Z,14.33
2023-02-21T14:54:17.496Z,13.89
2023-02-21T14:59:23.676Z,14.09
2023-02-21T15:04:30.468Z,13.25
2023-02-21T15:09:36.552Z,12.85
2023-02-21T15:14:44.150Z,13.77
2023-02-21T15:19:48.735Z,12.50
2023-02-21T15:24:55.010Z,12.74
2023-02-21T15:30:01.217Z,13.42
2023-02-21T15:35:08.448Z,14.01
2023-02-21T15:40:14.538Z,14.05
2023-02-21T15:45:20.810Z,14.60
2023-02-21T15:50:26.924Z,15.44
2023-02-21T15:55:33.169Z,17.46
2023-02-21T16:00:39.338Z,16.20
2023-02-21T16:05:45.525Z,15.77
2023-02-21T16:10:53.008Z,15.19
2023-02-21T16:15:59.394Z,15.60
2023-02-21T16:21:05.437Z,17.01
2023-02-21T16:26:11.737Z,17.47
2023-02-21T16:31:18.390Z,18.13
2023-02-21T16:36:23.622Z,19.27
2023-02-21T16:41:29.763Z,16.50
2023-02-21T16:46:36.052Z,17.79
2023-02-21T16:51:42.153Z,16.51
2023-02-21T16:56:48.317Z,17.31
2023-02-21T17:01:54.444Z,16.03
2023-02-21T17:07:00.627Z,16.32
2023-02-21T17:12:06.722Z,17.36
2023-02-21T17:17:13.088Z,16.89
2023-02-21T17:22:19.543Z,15.51
2023-02-21T17:27:25.697Z,16.64
2023-02-21T17:32:31.767Z,18.94
2023-02-21T17:37:37.978Z,19.28
2023-02-21T17:42:44.086Z,22.34
2023-02-21T17:47:50.340Z,25.60
2023-02-21T17:52:56.404Z,19.63
2023-02-21T17:58:02.611Z,26.39
2023-02-21T18:03:08.913Z,19.19
2023-02-21T18:08:15.105Z,17.71
2023-02-21T18:13:21.201Z,17.00
2023-02-21T18:18:27.753Z,15.76
2023-02-21T18:23:33.855Z,16.42
2023-02-21T18:28:40.070Z,16.09
2023-02-21T18:33:46.197Z,18.07
2023-02-21T18:38:52.546Z,17.40
2023-02-21T18:43:58.738Z,17.28
2023-02-21T18:49:05.015Z,18.04
2023-02-21T18:54:11.389Z,17.24
2023-02-21T18:59:17.640Z,17.98
2023-02-21T19:04:23.966Z,17.83
2023-02-21T19:09:31.257Z,20.02
2023-02-21T19:14:40.855Z,18.40
2023-02-21T19:19:47.190Z,18.23
2023-02-21T19:24:54.318Z,18.26
2023-02-21T19:30:00.677Z,17.49
2023-02-21T19:35:09.045Z,19.26
2023-02-21T19:40:15.213Z,17.79
2023-02-21T19:45:21.668Z,18.55
2023-02-21T19:50:27.949Z,19.63
2023-02-21T19:55:36.354Z,18.67
2023-02-21T20:00:42.673Z,20.38
2023-02-21T20:05:49.906Z,20.09
2023-02-21T20:10:56.457Z,19.42
2023-02-21T20:16:02.752Z,20.47
2023-02-21T20:21:10.003Z,21.10
2023-02-21T20:26:17.391Z,20.56
2023-02-21T20:31:24.425Z,19.34
2023-02-21T20:36:30.596Z,19.81
2023-02-21T20:41:36.956Z,20.40
2023-02-21T20:46:43.174Z,20.88
2023-02-21T20:51:49.699Z,21.46
2023-02-21T20:56:56.034Z,21.62
2023-02-21T21:02:02.531Z,22.24
2023-02-21T21:07:11.461Z,23.45
2023-02-21T21:12:18.499Z,22.07
2023-02-21T21:17:24.859Z,42.32
2023-02-21T21:22:31.335Z,24.63
2023-02-21T21:27:37.526Z,22.66
2023-02-21T21:32:43.878Z,23.65
2023-02-21T21:37:50.049Z,25.16
2023-02-21T21:42:56.421Z,24.83
2023-02-21T21:48:02.625Z,25.84
2023-02-21T21:53:08.976Z,24.12
2023-02-21T21:58:15.077Z,25.73
2023-02-21T22:03:21.420Z,26.70
2023-02-21T22:08:27.774Z,28.85
2023-02-21T22:13:34.124Z,26.60
2023-02-21T22:18:40.351Z,26.16
2023-02-21T22:23:46.626Z,27.25
2023-02-21T22:28:52.834Z,27.46
2023-02-21T22:33:59.278Z,25.97
2023-02-21T22:39:05.408Z,25.59
2023-02-21T22:44:11.787Z,26.23
2023-02-21T22:49:17.865Z,24.23
2023-02-21T22:54:24.298Z,27.48
2023-02-21T22:59:30.533Z,25.92
2023-02-21T23:04:38.182Z,24.34
2023-02-21T23:09:42.532Z,25.00
2023-02-21T23:14:48.742Z,26.71
2023-02-21T23:19:55.045Z,26.76
2023-02-21T23:25:01.411Z,26.73
2023-02-21T23:30:07.719Z,25.54
2023-02-21T23:35:14.761Z,26.09
2023-02-21T23:40:23.852Z,26.00
2023-02-21T23:45:30.864Z,25.38
2023-02-21T23:50:37.050Z,25.71
2023-02-21T23:55:43.879Z,27.30
